createdAt,value
2022-11-24T00:01:29.474Z,1.38
2022-11-24T00:04:03.308Z,1.48
2022-11-24T00:06:34.666Z,1.53
2022-11-24T00:09:04.545Z,1.80
2022-11-24T00:11:35.263Z,1.63
2022-11-24T00:14:04.949Z,1.77
2022-11-24T00:16:36.065Z,1.50
2022-11-24T00:19:06.373Z,1.50
2022-11-24T00:21:34.391Z,1.30
2022-11-24T00:24:03.073Z,1.20
2022-11-24T00:26:33.508Z,1.70
2022-11-24T00:29:05.564Z,1.73
2022-11-24T00:31:42.434Z,1.73
2022-11-24T00:34:15.430Z,2.25
2022-11-24T00:36:43.910Z,1.83
2022-11-24T00:39:16.196Z,2.85
2022-11-24T00:41:44.605Z,1.65
2022-11-24T00:44:12.505Z,1.73
2022-11-24T00:46:40.829Z,1.70
2022-11-24T00:49:09.200Z,1.60
2022-11-24T00:51:37.323Z,1.88
2022-11-24T00:54:07.074Z,1.73
2022-11-24T00:56:35.269Z,1.77
2022-11-24T00:59:03.247Z,1.45
2022-11-24T01:01:32.133Z,1.73
2022-11-24T01:04:04.224Z,1.67
2022-11-24T01:06:33.340Z,1.70
2022-11-24T01:09:01.226Z,1.77
2022-11-24T01:11:54.890Z,1.80
2022-11-24T01:14:25.825Z,2.00
2022-11-24T01:16:54.929Z,1.58
2022-11-24T01:19:23.401Z,1.85
2022-11-24T01:21:51.928Z,1.70
2022-11-24T01:24:20.316Z,1.90
2022-11-24T01:26:48.387Z,1.90
2022-11-24T01:29:16.433Z,2.22
2022-11-24T01:31:44.957Z,2.10
2022-11-24T01:34:13.924Z,1.70
2022-11-24T01:36:42.070Z,1.80
2022-11-24T01:39:10.036Z,1.67
2022-11-24T01:41:38.476Z,1.75
2022-11-24T01:44:29.955Z,1.90
2022-11-24T01:47:29.597Z,1.90
2022-11-24T01:50:00.809Z,1.90
2022-11-24T01:52:39.154Z,1.60
2022-11-24T01:55:12.461Z,1.60
2022-11-24T01:57:46.210Z,1.63
2022-11-24T02:00:15.971Z,1.70
2022-11-24T02:02:45.711Z,1.73
2022-11-24T02:05:31.613Z,1.50
2022-11-24T02:08:02.180Z,1.70
2022-11-24T02:10:30.952Z,1.80
2022-11-24T02:13:01.413Z,2.00
2022-11-24T02:15:29.750Z,1.30
2022-11-24T02:17:59.586Z,1.70
2022-11-24T02:20:28.305Z,1.75
2022-11-24T02:23:23.193Z,1.65
2022-11-24T02:26:05.614Z,1.60
2022-11-24T02:28:34.430Z,1.38
2022-11-24T02:31:04.086Z,1.80
2022-11-24T02:33:33.580Z,1.60
2022-11-24T02:36:01.522Z,1.60
2022-11-24T02:38:36.710Z,1.60
2022-11-24T02:41:08.978Z,1.60
2022-11-24T02:43:41.446Z,1.30
2022-11-24T02:46:11.571Z,1.45
2022-11-24T02:48:40.004Z,1.85
2022-11-24T02:51:08.073Z,1.70
2022-11-24T02:53:36.693Z,1.75
2022-11-24T02:56:05.360Z,1.60
2022-11-24T02:58:33.487Z,1.50
2022-11-24T03:01:01.391Z,1.40
2022-11-24T03:03:29.617Z,1.97
2022-11-24T03:05:57.622Z,1.58
2022-11-24T03:08:25.717Z,1.98
2022-11-24T03:10:53.855Z,1.65
2022-11-24T03:13:22.090Z,1.80
2022-11-24T03:15:50.090Z,2.03
2022-11-24T03:18:18.413Z,1.90
2022-11-24T03:20:46.523Z,1.60
2022-11-24T03:23:14.532Z,1.77
2022-11-24T03:25:42.686Z,1.88
2022-11-24T03:28:10.993Z,1.67
2022-11-24T03:30:38.905Z,1.60
2022-11-24T03:33:07.805Z,1.77
2022-11-24T03:35:35.751Z,1.55
2022-11-24T03:38:04.055Z,1.40
2022-11-24T03:40:32.146Z,1.50
2022-11-24T03:43:00.257Z,1.20
2022-11-24T03:48:18.435Z,1.50
2022-11-24T03:50:55.572Z,1.50
2022-11-24T03:53:24.568Z,1.50
2022-11-24T03:55:52.751Z,1.60
2022-11-24T03:58:21.324Z,1.67
2022-11-24T04:00:50.572Z,1.60
2022-11-24T04:03:19.694Z,1.70
2022-11-24T04:05:48.605Z,1.40
2022-11-24T04:08:17.324Z,1.70
2022-11-24T04:10:45.303Z,1.48
2022-11-24T04:13:15.977Z,1.50
2022-11-24T04:15:44.701Z,1.60
2022-11-24T04:18:14.308Z,1.27
2022-11-24T04:20:43.227Z,1.25
2022-11-24T04:23:11.943Z,1.30
2022-11-24T04:25:41.886Z,1.30
2022-11-24T04:28:10.624Z,1.48
2022-11-24T04:30:40.744Z,1.17
2022-11-24T04:33:10.337Z,1.60
2022-11-24T04:35:38.462Z,1.30
2022-11-24T04:38:06.361Z,1.30
2022-11-24T04:40:35.336Z,1.40
2022-11-24T04:43:03.302Z,1.20
2022-11-24T04:45:31.373Z,1.33
2022-11-24T04:47:59.390Z,1.52
2022-11-24T04:50:27.876Z,1.63
2022-11-24T04:52:55.851Z,2.00
2022-11-24T04:55:24.268Z,1.70
2022-11-24T04:57:52.157Z,1.75
2022-11-24T05:00:20.912Z,1.98
2022-11-24T05:02:49.063Z,1.90
2022-11-24T05:05:17.309Z,1.90
2022-11-24T05:07:45.310Z,1.87
2022-11-24T05:10:31.817Z,1.60
2022-11-24T05:13:00.049Z,1.80
2022-11-24T05:15:28.250Z,1.30
2022-11-24T05:17:57.528Z,1.20
2022-11-24T05:20:25.698Z,1.23
2022-11-24T05:22:53.918Z,1.30
2022-11-24T05:25:22.064Z,1.55
2022-11-24T05:27:50.284Z,1.70
2022-11-24T05:30:18.180Z,1.40
2022-11-24T05:32:46.694Z,1.30
2022-11-24T05:35:14.685Z,1.85
2022-11-24T05:37:42.950Z,1.20
2022-11-24T05:40:11.232Z,1.40
2022-11-24T05:42:46.555Z,1.30
2022-11-24T05:45:20.549Z,1.30
2022-11-24T05:47:50.197Z,1.30
2022-11-24T05:50:21.631Z,1.50
2022-11-24T05:52:50.607Z,1.20
2022-11-24T05:55:19.892Z,1.33
2022-11-24T05:57:48.164Z,1.63
2022-11-24T06:00:20.589Z,1.45
2022-11-24T06:02:49.222Z,1.67
2022-11-24T06:05:17.755Z,1.60
2022-11-24T06:07:46.184Z,1.50
2022-11-24T06:10:15.220Z,1.97
2022-11-24T06:12:43.457Z,1.70
2022-11-24T06:15:12.723Z,1.70
2022-11-24T06:17:41.430Z,1.58
2022-11-24T06:20:11.003Z,1.58
2022-11-24T06:22:39.290Z,1.53
2022-11-24T06:25:07.548Z,1.85
2022-11-24T06:27:36.676Z,1.58
2022-11-24T06:30:05.337Z,1.40
2022-11-24T06:32:33.539Z,1.50
2022-11-24T06:35:01.459Z,1.30
2022-11-24T06:37:29.640Z,1.40
2022-11-24T06:39:57.707Z,1.30
2022-11-24T06:42:25.863Z,1.20
2022-11-24T06:44:53.788Z,1.58
2022-11-24T06:47:22.105Z,2.20
2022-11-24T06:49:49.987Z,1.67
2022-11-24T06:52:17.972Z,2.80
2022-11-24T06:54:45.969Z,2.38
2022-11-24T06:57:14.031Z,1.95
2022-11-24T06:59:41.960Z,2.40
2022-11-24T07:02:11.415Z,2.50
2022-11-24T07:04:39.271Z,2.80
2022-11-24T07:07:10.196Z,2.30
2022-11-24T07:09:38.378Z,2.22
2022-11-24T07:12:06.614Z,2.40
2022-11-24T07:14:34.938Z,2.42
2022-11-24T07:17:05.166Z,1.80
2022-11-24T07:19:33.239Z,1.65
2022-11-24T07:22:01.099Z,1.80
2022-11-24T07:24:29.210Z,1.80
2022-11-24T07:26:57.100Z,1.40
2022-11-24T07:29:25.135Z,1.20
2022-11-24T07:31:53.711Z,1.40
2022-11-24T07:34:22.097Z,1.73
2022-11-24T07:36:50.774Z,2.60
2022-11-24T07:39:19.248Z,3.25
2022-11-24T07:41:47.145Z,3.55
2022-11-24T07:44:16.140Z,4.80
2022-11-24T07:46:44.271Z,4.97
2022-11-24T07:49:12.610Z,4.80
2022-11-24T07:51:40.736Z,3.08
2022-11-24T07:54:08.997Z,2.67
2022-11-24T07:56:36.849Z,2.38
2022-11-24T07:59:05.051Z,1.92
2022-11-24T08:01:33.316Z,2.10
2022-11-24T08:04:02.961Z,1.90
2022-11-24T08:06:39.808Z,1.90
2022-11-24T08:09:10.757Z,2.08
2022-11-24T08:11:38.726Z,2.30
2022-11-24T08:14:06.886Z,2.00
2022-11-24T08:16:34.887Z,2.45
2022-11-24T08:19:02.906Z,2.10
2022-11-24T08:21:30.787Z,2.10
2022-11-24T08:23:59.091Z,2.00
2022-11-24T08:26:27.476Z,2.20
2022-11-24T08:28:58.790Z,2.00
2022-11-24T08:31:33.931Z,2.45
2022-11-24T08:34:04.700Z,2.22
2022-11-24T08:36:34.092Z,1.77
2022-11-24T08:39:05.277Z,1.60
2022-11-24T08:41:33.917Z,1.40
2022-11-24T08:44:04.829Z,1.33
2022-11-24T08:46:32.930Z,1.42
2022-11-24T08:49:00.755Z,1.75
2022-11-24T08:51:29.417Z,1.90
2022-11-24T08:53:59.173Z,1.55
2022-11-24T08:56:33.337Z,1.48
2022-11-24T08:59:02.681Z,1.40
2022-11-24T09:01:31.122Z,1.20
2022-11-24T09:03:59.334Z,1.20
2022-11-24T09:06:31.207Z,1.20
2022-11-24T09:09:00.513Z,1.10
2022-11-24T09:11:29.164Z,1.30
2022-11-24T09:13:57.351Z,1.10
2022-11-24T09:16:28.111Z,1.13
2022-11-24T09:18:59.847Z,1.02
2022-11-24T09:21:28.461Z,1.40
2022-11-24T09:23:57.584Z,1.02
2022-11-24T09:26:44.600Z,1.30
2022-11-24T09:29:15.702Z,1.63
2022-11-24T09:31:44.140Z,1.75
2022-11-24T09:34:15.937Z,1.88
2022-11-24T09:36:44.290Z,1.92
2022-11-24T09:39:12.844Z,1.80
2022-11-24T09:41:55.334Z,2.33
2022-11-24T09:45:07.717Z,2.25
2022-11-24T09:47:57.823Z,2.42
2022-11-24T09:50:31.210Z,2.15
2022-11-24T09:53:14.643Z,1.77
2022-11-24T09:55:55.273Z,1.80
2022-11-24T09:58:42.030Z,2.00
2022-11-24T10:01:17.945Z,2.00
2022-11-24T10:03:54.245Z,1.80
2022-11-24T10:06:50.814Z,1.70
2022-11-24T10:09:37.650Z,1.47
2022-11-24T10:12:14.012Z,1.60
2022-11-24T10:14:56.925Z,2.28
2022-11-24T10:18:10.557Z,1.80
2022-11-24T10:21:26.250Z,1.50
2022-11-24T10:24:24.941Z,1.33
2022-11-24T10:27:02.616Z,1.80
2022-11-24T10:29:42.461Z,1.90
2022-11-24T10:32:38.959Z,1.63
2022-11-24T10:35:28.678Z,1.60
2022-11-24T10:38:12.731Z,1.60
2022-11-24T10:41:03.751Z,1.52
2022-11-24T10:43:32.059Z,1.38
2022-11-24T10:46:14.418Z,1.27
2022-11-24T10:48:52.225Z,1.20
2022-11-24T10:51:41.862Z,1.00
2022-11-24T10:54:22.600Z,0.70
2022-11-24T10:56:55.308Z,0.70
2022-11-24T10:59:26.058Z,0.70
2022-11-24T11:01:54.662Z,1.10
2022-11-24T11:04:28.404Z,1.20
2022-11-24T11:07:17.950Z,1.20
2022-11-24T11:09:47.825Z,1.00
2022-11-24T11:12:46.152Z,0.80
2022-11-24T11:15:30.672Z,0.68
2022-11-24T11:18:01.942Z,0.60
2022-11-24T11:20:35.735Z,0.80
2022-11-24T11:23:21.698Z,1.30
2022-11-24T11:25:50.419Z,1.42
2022-11-24T11:28:18.809Z,1.40
2022-11-24T11:34:06.200Z,1.73
2022-11-24T11:36:37.081Z,1.95
2022-11-24T11:39:05.772Z,1.90
2022-11-24T11:41:40.493Z,1.83
2022-11-24T11:44:14.599Z,1.70
2022-11-24T11:46:44.416Z,1.80
2022-11-24T11:49:13.963Z,1.20
2022-11-24T11:51:49.922Z,1.38
2022-11-24T11:54:30.046Z,1.08
2022-11-24T11:57:09.538Z,1.23
2022-11-24T12:00:00.985Z,1.30
2022-11-24T12:02:44.778Z,1.30
2022-11-24T12:05:44.893Z,1.10
2022-11-24T12:08:56.045Z,1.10
2022-11-24T12:11:32.524Z,0.90
2022-11-24T12:14:20.753Z,1.38
2022-11-24T12:17:11.913Z,1.20
2022-11-24T12:19:52.421Z,1.13
2022-11-24T12:22:47.014Z,1.20
2022-11-24T12:25:36.905Z,1.07
2022-11-24T12:28:20.438Z,1.05
2022-11-24T12:31:07.641Z,1.02
2022-11-24T12:34:06.246Z,1.25
2022-11-24T12:37:01.508Z,0.88
2022-11-24T12:39:36.221Z,0.97
2022-11-24T12:42:16.178Z,0.95
2022-11-24T12:45:08.870Z,1.00
2022-11-24T12:48:14.050Z,1.20
2022-11-24T12:50:44.599Z,1.10
2022-11-24T12:53:27.007Z,1.10
2022-11-24T12:55:58.499Z,0.95
2022-11-24T12:58:39.978Z,1.00
2022-11-24T13:01:32.421Z,1.10
2022-11-24T13:04:38.242Z,1.30
2022-11-24T13:07:18.865Z,1.37
2022-11-24T13:10:40.423Z,1.10
2022-11-24T13:13:14.106Z,1.10
2022-11-24T13:16:20.712Z,1.02
2022-11-24T13:19:00.415Z,0.93
2022-11-24T13:21:31.608Z,0.90
2022-11-24T13:24:02.448Z,0.90
2022-11-24T13:26:41.487Z,1.02
2022-11-24T13:29:28.684Z,1.17
2022-11-24T13:32:18.170Z,1.25
2022-11-24T13:34:46.112Z,1.30
2022-11-24T13:37:31.833Z,1.30
2022-11-24T13:40:24.242Z,1.20
2022-11-24T13:42:58.043Z,0.90
2022-11-24T13:45:42.044Z,1.20
2022-11-24T13:48:22.564Z,1.20
2022-11-24T13:50:51.240Z,1.17
2022-11-24T13:53:45.144Z,1.23
2022-11-24T13:56:13.057Z,1.13
2022-11-24T13:58:52.866Z,0.93
2022-11-24T14:01:36.310Z,1.10
2022-11-24T14:04:32.910Z,1.08
2022-11-24T14:07:11.232Z,1.15
2022-11-24T14:09:51.782Z,0.93
2022-11-24T14:12:27.064Z,1.10
2022-11-24T14:15:13.831Z,1.00
2022-11-24T14:17:41.647Z,0.93
2022-11-24T14:20:25.428Z,0.90
2022-11-24T14:22:54.761Z,0.80
2022-11-24T14:25:33.193Z,0.80
2022-11-24T14:28:01.543Z,0.90
2022-11-24T14:30:29.517Z,0.80
2022-11-24T14:32:59.681Z,0.93
2022-11-24T14:35:43.164Z,1.00
2022-11-24T14:38:13.106Z,1.10
2022-11-24T14:40:42.954Z,1.00
2022-11-24T14:43:24.492Z,0.95
2022-11-24T14:45:55.062Z,1.02
2022-11-24T14:48:37.125Z,0.88
2022-11-24T14:51:30.843Z,1.00
2022-11-24T14:54:14.604Z,1.00
2022-11-24T14:57:01.531Z,0.80
2022-11-24T14:59:31.320Z,0.80
2022-11-24T15:02:00.061Z,0.88
2022-11-24T15:05:00.767Z,1.42
2022-11-24T15:07:29.574Z,0.90
2022-11-24T15:10:03.275Z,0.80
2022-11-24T15:12:31.221Z,1.30
2022-11-24T15:15:05.533Z,1.13
2022-11-24T15:17:33.972Z,1.23
2022-11-24T15:20:10.184Z,1.20
2022-11-24T15:22:45.047Z,1.40
2022-11-24T15:25:28.104Z,1.10
2022-11-24T15:27:59.688Z,0.88
2022-11-24T15:30:28.858Z,1.10
2022-11-24T15:32:58.942Z,0.80
2022-11-24T15:35:32.022Z,0.80
2022-11-24T15:38:00.207Z,1.13
2022-11-24T15:40:28.149Z,1.20
2022-11-24T15:43:00.766Z,1.30
2022-11-24T15:45:29.924Z,1.00
2022-11-24T15:47:57.849Z,1.10
2022-11-24T15:50:26.034Z,1.75
2022-11-24T15:52:53.835Z,1.00
2022-11-24T15:55:23.209Z,1.13
2022-11-24T15:57:51.315Z,1.13
2022-11-24T16:00:22.555Z,1.02
2022-11-24T16:02:50.900Z,1.25
2022-11-24T16:05:18.889Z,1.10
2022-11-24T16:07:46.873Z,1.42
2022-11-24T16:10:41.340Z,0.90
2022-11-24T16:13:12.912Z,1.27
2022-11-24T16:15:40.916Z,1.20
2022-11-24T16:18:08.717Z,1.48
2022-11-24T16:20:36.882Z,1.20
2022-11-24T16:23:05.414Z,1.40
2022-11-24T16:25:33.466Z,1.10
2022-11-24T16:28:01.380Z,1.08
2022-11-24T16:30:30.378Z,1.55
2022-11-24T16:32:58.356Z,1.38
2022-11-24T16:35:26.591Z,1.90
2022-11-24T16:37:54.466Z,1.75
2022-11-24T16:40:22.341Z,1.10
2022-11-24T16:42:50.211Z,1.45
2022-11-24T16:45:18.389Z,1.50
2022-11-24T16:47:46.334Z,1.30
2022-11-24T16:50:14.435Z,1.73
2022-11-24T16:52:42.411Z,2.50
2022-11-24T16:55:12.068Z,3.80
2022-11-24T16:57:42.228Z,3.65
2022-11-24T17:00:11.665Z,4.03
2022-11-24T17:02:39.618Z,3.53
2022-11-24T17:05:08.152Z,3.85
2022-11-24T17:07:36.127Z,3.70
2022-11-24T17:10:04.448Z,3.40
2022-11-24T17:12:32.251Z,2.33
2022-11-24T17:15:32.514Z,2.20
2022-11-24T17:18:08.726Z,2.42
2022-11-24T17:20:41.487Z,2.70
2022-11-24T17:23:09.489Z,2.70
2022-11-24T17:25:37.408Z,1.97
2022-11-24T17:28:05.476Z,2.75
2022-11-24T17:30:34.314Z,2.55
2022-11-24T17:33:02.297Z,3.40
2022-11-24T17:35:30.193Z,4.50
2022-11-24T17:37:58.924Z,4.77
2022-11-24T17:40:28.784Z,4.63
2022-11-24T17:43:00.836Z,4.45
2022-11-24T17:45:31.034Z,5.70
2022-11-24T17:48:02.180Z,8.13
2022-11-24T17:50:30.222Z,13.33
2022-11-24T17:52:58.947Z,18.25
2022-11-24T17:55:26.970Z,16.38
2022-11-24T17:57:56.235Z,12.68
2022-11-24T18:00:24.506Z,17.17
2022-11-24T18:02:52.518Z,18.80
2022-11-24T18:05:21.692Z,17.58
2022-11-24T18:07:49.816Z,14.07
2022-11-24T18:10:17.915Z,9.52
2022-11-24T18:12:46.179Z,5.75
2022-11-24T18:15:14.347Z,3.70
2022-11-24T18:17:42.364Z,2.97
2022-11-24T18:20:11.031Z,3.10
2022-11-24T18:25:27.376Z,3.60
2022-11-24T18:27:55.459Z,3.70
2022-11-24T18:30:24.468Z,3.30
2022-11-24T18:32:52.466Z,3.80
2022-11-24T18:35:20.581Z,3.65
2022-11-24T18:37:48.461Z,5.18
2022-11-24T18:40:16.481Z,4.73
2022-11-24T18:42:44.495Z,4.65
2022-11-24T18:45:12.760Z,5.30
2022-11-24T18:47:44.189Z,5.35
2022-11-24T18:50:12.336Z,5.80
2022-11-24T18:52:40.313Z,6.53
2022-11-24T18:55:08.525Z,7.00
2022-11-24T18:57:36.517Z,6.43
2022-11-24T19:00:05.704Z,4.40
2022-11-24T19:02:33.633Z,4.13
2022-11-24T19:05:01.770Z,4.83
2022-11-24T19:07:29.647Z,4.43
2022-11-24T19:09:59.988Z,3.63
2022-11-24T19:12:28.347Z,3.80
2022-11-24T19:14:56.308Z,3.70
2022-11-24T19:17:24.197Z,4.17
2022-11-24T19:19:52.246Z,3.38
2022-11-24T19:22:22.295Z,2.50
2022-11-24T19:24:51.343Z,3.42
2022-11-24T19:27:21.963Z,3.45
2022-11-24T19:29:51.309Z,3.93
2022-11-24T19:32:19.933Z,4.93
2022-11-24T19:34:48.048Z,7.93
2022-11-24T19:37:16.497Z,6.10
2022-11-24T19:39:44.518Z,5.43
2022-11-24T19:42:12.722Z,4.37
2022-11-24T19:44:40.748Z,4.50
2022-11-24T19:47:08.992Z,4.38
2022-11-24T19:49:37.153Z,3.40
2022-11-24T19:52:08.232Z,3.55
2022-11-24T19:54:36.534Z,3.07
2022-11-24T19:57:07.833Z,2.70
2022-11-24T19:59:35.801Z,2.95
2022-11-24T20:02:04.223Z,3.05
2022-11-24T20:04:33.819Z,3.33
2022-11-24T20:07:01.942Z,3.10
2022-11-24T20:09:30.168Z,3.45
2022-11-24T20:11:59.182Z,3.53
2022-11-24T20:14:27.576Z,3.80
2022-11-24T20:16:55.544Z,4.80
2022-11-24T20:19:23.604Z,7.33
2022-11-24T20:21:53.420Z,7.78
2022-11-24T20:24:25.606Z,8.15
2022-11-24T20:27:00.665Z,6.22
2022-11-24T20:29:29.783Z,4.90
2022-11-24T20:32:00.375Z,3.97
2022-11-24T20:34:32.216Z,5.00
2022-11-24T20:37:00.128Z,5.50
2022-11-24T20:39:29.091Z,5.85
2022-11-24T20:41:58.495Z,5.95
2022-11-24T20:44:28.463Z,5.70
2022-11-24T20:47:00.348Z,5.07
2022-11-24T20:49:29.293Z,5.38
2022-11-24T20:52:00.103Z,5.95
2022-11-24T20:54:28.481Z,5.30
2022-11-24T20:56:56.481Z,5.27
2022-11-24T20:59:27.577Z,6.20
2022-11-24T21:01:55.902Z,6.00
2022-11-24T21:04:26.633Z,5.72
2022-11-24T21:06:55.360Z,4.68
2022-11-24T21:09:23.480Z,4.30
2022-11-24T21:11:51.521Z,5.30
2022-11-24T21:14:19.419Z,6.15
2022-11-24T21:16:47.963Z,6.60
2022-11-24T21:19:21.716Z,7.10
2022-11-24T21:21:50.552Z,5.83
2022-11-24T21:24:22.309Z,6.07
2022-11-24T21:26:53.050Z,6.95
2022-11-24T21:29:23.853Z,6.18
2022-11-24T21:31:52.655Z,6.00
2022-11-24T21:34:20.617Z,5.43
2022-11-24T21:36:48.674Z,5.90
2022-11-24T21:39:16.963Z,5.43
2022-11-24T21:41:45.681Z,5.07
2022-11-24T21:44:14.614Z,4.53
2022-11-24T21:46:51.130Z,4.90
2022-11-24T21:49:23.123Z,4.40
2022-11-24T21:51:56.100Z,5.25
2022-11-24T21:54:24.779Z,5.18
2022-11-24T21:56:54.602Z,4.55
2022-11-24T21:59:23.011Z,4.00
2022-11-24T22:01:50.955Z,4.35
2022-11-24T22:04:19.340Z,4.20
2022-11-24T22:06:47.217Z,3.85
2022-11-24T22:09:18.166Z,3.50
2022-11-24T22:11:46.979Z,3.63
2022-11-24T22:14:15.203Z,3.80
2022-11-24T22:16:43.289Z,3.50
2022-11-24T22:19:11.412Z,3.50
2022-11-24T22:21:39.379Z,3.80
2022-11-24T22:24:07.423Z,3.30
2022-11-24T22:26:36.309Z,2.80
2022-11-24T22:29:04.499Z,2.75
2022-11-24T22:31:34.318Z,2.85
2022-11-24T22:34:02.253Z,2.95
2022-11-24T22:36:30.717Z,3.42
2022-11-24T22:39:03.438Z,3.40
2022-11-24T22:41:36.112Z,2.97
2022-11-24T22:44:05.088Z,2.83
2022-11-24T22:46:33.211Z,2.92
2022-11-24T22:49:02.584Z,2.90
2022-11-24T22:51:33.805Z,3.10
2022-11-24T22:54:04.285Z,3.13
2022-11-24T22:56:33.576Z,3.10
2022-11-24T22:59:03.418Z,3.33
2022-11-24T23:01:34.214Z,2.97
2022-11-24T23:04:04.164Z,3.20
2022-11-24T23:06:33.700Z,2.80
2022-11-24T23:09:02.914Z,2.90
2022-11-24T23:11:38.065Z,2.78
2022-11-24T23:14:14.076Z,2.90
2022-11-24T23:16:43.137Z,2.40
2022-11-24T23:19:11.259Z,2.40
2022-11-24T23:21:40.474Z,2.25
2022-11-24T23:24:11.684Z,2.00
2022-11-24T23:26:41.722Z,2.40
2022-11-24T23:29:15.176Z,2.23
2022-11-24T23:31:46.301Z,2.17
2022-11-24T23:34:14.083Z,2.60
2022-11-24T23:36:41.937Z,2.50
2022-11-24T23:39:13.050Z,2.53
2022-11-24T23:41:41.471Z,2.30
2022-11-24T23:44:09.380Z,2.10
2022-11-24T23:46:40.556Z,2.58
2022-11-24T23:49:08.436Z,2.20
2022-11-24T23:51:36.426Z,1.95
2022-11-24T23:54:10.140Z,1.87
2022-11-24T23:56:38.177Z,2.10
2022-11-24T23:59:06.320Z,1.42
